createdAt,value
2022-08-05T00:01:28.978Z,18.84
2022-08-05T00:03:57.242Z,18.79
2022-08-05T00:06:32.205Z,18.72
2022-08-05T00:09:00.582Z,18.86
2022-08-05T00:11:34.994Z,18.68
2022-08-05T00:14:16.922Z,18.77
2022-08-05T00:16:52.896Z,18.83
2022-08-05T00:19:22.498Z,18.84
2022-08-05T00:21:49.764Z,18.82
2022-08-05T00:24:19.313Z,18.75
2022-08-05T00:26:56.147Z,18.62
2022-08-05T00:29:25.779Z,18.73
2022-08-05T00:32:12.702Z,18.36
2022-08-05T00:35:04.133Z,18.65
2022-08-05T00:37:50.283Z,18.71
2022-08-05T00:40:17.861Z,18.65
2022-08-05T00:42:54.804Z,18.66
2022-08-05T00:45:28.008Z,18.68
2022-08-05T00:48:05.481Z,18.56
2022-08-05T00:50:32.749Z,18.62
2022-08-05T00:52:59.577Z,18.58
2022-08-05T00:55:34.190Z,18.54
2022-08-05T00:58:13.908Z,18.57
2022-08-05T01:00:42.209Z,18.53
2022-08-05T01:03:23.023Z,18.55
2022-08-05T01:05:51.370Z,18.51
2022-08-05T01:08:30.647Z,18.56
2022-08-05T01:11:37.064Z,18.52
2022-08-05T01:14:16.383Z,18.44
2022-08-05T01:17:06.005Z,18.42
2022-08-05T01:20:02.149Z,18.41
2022-08-05T01:22:42.621Z,18.50
2022-08-05T01:25:41.038Z,18.48
2022-08-05T01:28:26.754Z,18.48
2022-08-05T01:30:56.218Z,18.46
2022-08-05T01:33:29.551Z,18.41
2022-08-05T01:36:12.875Z,18.44
2022-08-05T01:38:46.070Z,18.45
2022-08-05T01:41:25.774Z,18.40
2022-08-05T01:43:53.721Z,18.37
2022-08-05T01:46:42.099Z,18.33
2022-08-05T01:49:22.717Z,18.32
2022-08-05T01:51:54.118Z,18.30
2022-08-05T01:54:24.652Z,18.23
2022-08-05T01:58:10.551Z,18.23
2022-08-05T01:59:47.182Z,18.23
2022-08-05T02:02:15.996Z,18.24
2022-08-05T02:04:46.152Z,18.23
2022-08-05T02:07:22.098Z,18.25
2022-08-05T02:09:51.012Z,18.20
2022-08-05T02:12:27.637Z,18.21
2022-08-05T02:15:03.791Z,18.21
2022-08-05T02:18:32.645Z,18.22
2022-08-05T02:20:24.830Z,18.25
2022-08-05T02:23:01.416Z,18.20
2022-08-05T02:25:50.257Z,18.15
2022-08-05T02:28:28.312Z,18.14
2022-08-05T02:31:00.461Z,18.16
2022-08-05T02:33:36.060Z,18.15
2022-08-05T02:36:09.309Z,18.11
2022-08-05T02:38:37.462Z,18.12
2022-08-05T02:41:06.491Z,18.15
2022-08-05T02:44:05.999Z,18.09
2022-08-05T02:46:33.737Z,18.13
2022-08-05T02:49:01.825Z,18.14
2022-08-05T02:52:03.614Z,18.15
2022-08-05T02:54:36.207Z,18.17
2022-08-05T02:57:10.259Z,18.15
2022-08-05T02:59:55.066Z,18.21
2022-08-05T03:02:28.244Z,18.23
2022-08-05T03:04:57.325Z,18.19
2022-08-05T03:08:00.809Z,18.17
2022-08-05T03:10:15.616Z,18.20
2022-08-05T03:12:49.494Z,18.24
2022-08-05T03:15:18.568Z,18.19
2022-08-05T03:17:45.063Z,18.19
2022-08-05T03:20:12.074Z,18.16
2022-08-05T03:22:44.046Z,18.21
2022-08-05T03:25:33.207Z,18.16
2022-08-05T03:28:02.932Z,18.14
2022-08-05T03:30:34.141Z,18.12
2022-08-05T03:33:06.171Z,18.09
2022-08-05T03:35:41.305Z,18.09
2022-08-05T03:38:12.677Z,18.03
2022-08-05T03:40:48.513Z,17.99
2022-08-05T03:44:09.571Z,17.97
2022-08-05T03:46:04.028Z,17.87
2022-08-05T03:48:35.557Z,17.89
2022-08-05T03:52:50.418Z,17.84
2022-08-05T03:55:07.010Z,17.77
2022-08-05T03:57:41.821Z,17.76
2022-08-05T04:00:04.723Z,17.78
2022-08-05T04:02:38.577Z,17.75
2022-08-05T04:05:13.016Z,17.80
2022-08-05T04:07:58.360Z,17.72
2022-08-05T04:10:27.465Z,17.70
2022-08-05T04:12:55.519Z,17.57
2022-08-05T04:15:25.568Z,17.56
2022-08-05T04:17:56.568Z,17.51
2022-08-05T04:20:26.530Z,17.50
2022-08-05T04:22:53.023Z,17.42
2022-08-05T04:25:19.751Z,17.43
2022-08-05T04:28:06.019Z,17.36
2022-08-05T04:30:37.989Z,17.33
2022-08-05T04:33:06.372Z,17.38
2022-08-05T04:36:10.698Z,17.40
2022-08-05T04:38:20.841Z,17.40
2022-08-05T04:40:50.589Z,17.39
2022-08-05T04:43:17.582Z,17.39
2022-08-05T04:45:54.898Z,17.38
2022-08-05T04:48:28.140Z,17.41
2022-08-05T04:51:02.614Z,17.40
2022-08-05T04:53:33.624Z,17.32
2022-08-05T04:56:32.998Z,17.31
2022-08-05T04:58:48.988Z,17.32
2022-08-05T05:01:15.681Z,17.19
2022-08-05T05:04:00.639Z,17.11
2022-08-05T05:06:38.827Z,17.16
2022-08-05T05:09:07.704Z,17.16
2022-08-05T05:11:52.788Z,17.17
2022-08-05T05:14:31.670Z,17.20
2022-08-05T05:17:03.357Z,17.23
2022-08-05T05:19:36.961Z,17.32
2022-08-05T05:22:24.496Z,17.35
2022-08-05T05:24:59.997Z,17.68
2022-08-05T05:27:45.521Z,17.96
2022-08-05T05:30:15.528Z,18.11
2022-08-05T05:32:56.484Z,18.61
2022-08-05T05:35:23.251Z,19.01
2022-08-05T05:37:59.432Z,19.38
2022-08-05T05:40:28.837Z,19.81
2022-08-05T05:42:57.592Z,20.09
2022-08-05T05:45:24.828Z,20.40
2022-08-05T05:48:05.259Z,20.62
2022-08-05T05:50:35.732Z,20.66
2022-08-05T05:53:22.404Z,20.64
2022-08-05T05:55:51.909Z,21.12
2022-08-05T05:58:31.529Z,21.17
2022-08-05T06:01:02.567Z,21.35
2022-08-05T06:04:00.469Z,21.43
2022-08-05T06:06:31.086Z,21.31
2022-08-05T06:09:00.099Z,21.40
2022-08-05T06:11:29.076Z,21.90
2022-08-05T06:13:56.723Z,21.95
2022-08-05T06:16:31.686Z,21.92
2022-08-05T06:19:01.852Z,21.97
2022-08-05T06:21:36.719Z,21.98
2022-08-05T06:24:12.248Z,22.03
2022-08-05T06:26:39.841Z,22.17
2022-08-05T06:29:25.551Z,22.27
2022-08-05T06:32:05.434Z,22.38
2022-08-05T06:34:48.163Z,22.26
2022-08-05T06:37:55.881Z,22.13
2022-08-05T06:40:07.374Z,22.43
2022-08-05T06:42:33.908Z,22.41
2022-08-05T06:45:00.386Z,22.35
2022-08-05T06:48:36.741Z,22.02
2022-08-05T06:50:18.960Z,22.04
2022-08-05T06:52:58.469Z,22.34
2022-08-05T06:55:25.690Z,22.31
2022-08-05T06:57:57.271Z,22.40
2022-08-05T07:00:31.372Z,22.02
2022-08-05T07:02:57.967Z,22.32
2022-08-05T07:05:36.976Z,22.50
2022-08-05T07:08:04.430Z,22.20
2022-08-05T07:10:32.730Z,22.53
2022-08-05T07:13:18.077Z,22.81
2022-08-05T07:17:56.312Z,22.76
2022-08-05T07:19:09.817Z,23.04
2022-08-05T07:24:23.876Z,22.73
2022-08-05T07:26:55.466Z,22.66
2022-08-05T07:29:25.329Z,22.57
2022-08-05T07:32:08.554Z,22.43
2022-08-05T07:34:38.135Z,22.68
2022-08-05T07:37:09.102Z,22.84
2022-08-05T07:40:26.970Z,22.86
2022-08-05T07:42:31.794Z,22.80
2022-08-05T07:45:00.863Z,22.97
2022-08-05T07:47:27.418Z,23.25
2022-08-05T07:50:09.411Z,23.34
2022-08-05T07:52:43.605Z,23.16
2022-08-05T07:55:15.717Z,23.03
2022-08-05T07:58:03.082Z,22.79
2022-08-05T08:00:30.775Z,23.19
2022-08-05T08:03:14.639Z,23.43
2022-08-05T08:05:49.311Z,23.44
2022-08-05T08:08:16.067Z,23.34
2022-08-05T08:10:48.931Z,23.46
2022-08-05T08:13:21.915Z,23.48
2022-08-05T08:16:35.347Z,22.95
2022-08-05T08:18:42.723Z,22.48
2022-08-05T08:21:17.720Z,22.27
2022-08-05T08:24:02.127Z,21.70
2022-08-05T08:26:31.008Z,21.56
2022-08-05T08:29:21.746Z,21.17
2022-08-05T08:31:46.100Z,21.12
2022-08-05T08:34:14.871Z,20.86
2022-08-05T08:36:52.377Z,20.88
2022-08-05T08:39:23.538Z,20.84
2022-08-05T08:41:59.879Z,20.88
2022-08-05T08:45:23.704Z,20.90
2022-08-05T08:48:06.433Z,21.05
2022-08-05T08:50:30.500Z,21.22
2022-08-05T08:53:11.889Z,21.03
2022-08-05T08:56:02.666Z,21.00
2022-08-05T08:58:37.644Z,20.78
2022-08-05T09:01:16.933Z,21.07
2022-08-05T09:03:48.210Z,21.23
2022-08-05T09:06:21.042Z,21.00
2022-08-05T09:08:50.512Z,21.82
2022-08-05T09:11:17.039Z,22.74
2022-08-05T09:14:00.960Z,23.16
2022-08-05T09:16:30.249Z,23.47
2022-08-05T09:18:59.420Z,23.36
2022-08-05T09:22:24.909Z,23.31
2022-08-05T09:24:15.638Z,23.00
2022-08-05T09:26:46.308Z,22.83
2022-08-05T09:29:18.738Z,22.42
2022-08-05T09:32:46.501Z,22.32
2022-08-05T09:34:55.085Z,22.44
2022-08-05T09:38:12.200Z,22.42
2022-08-05T09:40:30.058Z,22.94
2022-08-05T09:42:59.272Z,22.97
2022-08-05T09:46:07.397Z,22.69
2022-08-05T09:48:33.761Z,22.49
2022-08-05T09:51:03.545Z,22.18
2022-08-05T09:53:54.380Z,22.26
2022-08-05T09:56:31.034Z,22.62
2022-08-05T09:59:17.501Z,22.90
2022-08-05T10:01:46.603Z,23.31
2022-08-05T10:04:16.035Z,23.18
2022-08-05T10:06:59.482Z,22.72
2022-08-05T10:09:29.581Z,22.67
2022-08-05T10:12:30.801Z,22.57
2022-08-05T10:15:22.634Z,22.28
2022-08-05T10:18:10.539Z,22.28
2022-08-05T10:20:47.700Z,22.00
2022-08-05T10:23:34.104Z,21.64
2022-08-05T10:26:14.494Z,21.64
2022-08-05T10:28:43.944Z,21.61
2022-08-05T10:32:49.511Z,21.71
2022-08-05T10:34:00.356Z,21.76
2022-08-05T10:36:27.314Z,21.67
2022-08-05T10:39:10.116Z,21.83
2022-08-05T10:41:54.958Z,21.63
2022-08-05T10:44:24.701Z,21.79
2022-08-05T10:46:55.241Z,21.79
2022-08-05T10:49:27.379Z,21.82
2022-08-05T10:52:03.332Z,21.76
2022-08-05T10:55:01.944Z,21.68
2022-08-05T10:57:30.888Z,21.67
2022-08-05T11:00:16.099Z,21.46
2022-08-05T11:03:23.032Z,21.43
2022-08-05T11:06:08.539Z,21.24
2022-08-05T11:09:10.938Z,21.18
2022-08-05T11:11:52.371Z,21.22
2022-08-05T11:14:57.562Z,21.24
2022-08-05T11:18:00.416Z,21.11
2022-08-05T11:20:43.752Z,21.02
2022-08-05T11:23:33.166Z,21.05
2022-08-05T11:26:16.506Z,20.84
2022-08-05T11:28:56.298Z,20.77
2022-08-05T11:31:54.126Z,20.59
2022-08-05T11:34:36.610Z,20.61
2022-08-05T11:37:06.057Z,20.44
2022-08-05T11:40:00.741Z,20.47
2022-08-05T11:42:32.758Z,20.52
2022-08-05T11:45:23.083Z,20.32
2022-08-05T11:47:54.800Z,20.28
2022-08-05T11:50:21.849Z,20.24
2022-08-05T11:52:50.265Z,20.17
2022-08-05T11:55:18.675Z,20.08
2022-08-05T11:58:10.169Z,20.05
2022-08-05T12:00:38.561Z,20.06
2022-08-05T12:03:28.610Z,20.21
2022-08-05T12:06:06.240Z,20.15
2022-08-05T12:08:57.857Z,20.22
2022-08-05T12:11:28.398Z,20.19
2022-08-05T12:14:08.501Z,20.23
2022-08-05T12:16:45.148Z,20.26
2022-08-05T12:20:26.548Z,20.23
2022-08-05T12:21:58.565Z,20.30
2022-08-05T12:24:27.677Z,20.38
2022-08-05T12:26:54.344Z,20.56
2022-08-05T12:29:27.021Z,20.80
2022-08-05T12:31:57.052Z,21.14
2022-08-05T12:34:31.095Z,21.06
2022-08-05T12:37:00.827Z,21.19
2022-08-05T12:39:37.519Z,21.12
2022-08-05T12:42:16.200Z,20.97
2022-08-05T12:44:44.868Z,21.20
2022-08-05T12:47:13.765Z,21.27
2022-08-05T12:50:04.747Z,21.58
2022-08-05T12:52:39.703Z,21.58
2022-08-05T12:55:33.016Z,21.77
2022-08-05T12:58:51.342Z,22.00
2022-08-05T13:02:04.166Z,21.97
2022-08-05T13:03:42.482Z,21.67
2022-08-05T13:06:17.620Z,21.60
2022-08-05T13:08:52.198Z,21.87
2022-08-05T13:11:59.709Z,22.14
2022-08-05T13:14:25.023Z,22.34
2022-08-05T13:17:02.900Z,22.41
2022-08-05T13:22:29.529Z,22.68
2022-08-05T13:25:00.606Z,22.98
2022-08-05T13:27:39.920Z,23.08
2022-08-05T13:30:32.772Z,22.62
2022-08-05T13:32:56.480Z,22.57
2022-08-05T13:35:42.863Z,22.30
2022-08-05T13:38:15.763Z,22.18
2022-08-05T13:40:55.260Z,22.25
2022-08-05T13:43:22.366Z,22.12
2022-08-05T13:45:49.135Z,22.27
2022-08-05T13:48:57.520Z,22.56
2022-08-05T13:51:14.080Z,22.55
2022-08-05T13:53:48.067Z,22.99
2022-08-05T13:56:19.124Z,23.08
2022-08-05T13:58:53.144Z,22.21
2022-08-05T14:01:23.675Z,21.73
2022-08-05T14:04:12.458Z,21.44
2022-08-05T14:06:39.073Z,20.98
2022-08-05T14:09:14.400Z,21.08
2022-08-05T14:12:04.190Z,21.21
2022-08-05T14:14:33.639Z,21.51
2022-08-05T14:17:00.759Z,21.80
2022-08-05T14:19:27.473Z,21.66
2022-08-05T14:22:09.529Z,21.25
2022-08-05T14:24:39.875Z,21.54
2022-08-05T14:27:18.069Z,21.81
2022-08-05T14:29:45.228Z,21.69
2022-08-05T14:32:27.680Z,21.61
2022-08-05T14:34:56.725Z,21.48
2022-08-05T14:37:48.045Z,21.57
2022-08-05T14:40:12.670Z,21.81
2022-08-05T14:42:41.422Z,22.24
2022-08-05T14:45:10.076Z,22.25
2022-08-05T14:48:05.295Z,22.18
2022-08-05T14:50:25.378Z,22.00
2022-08-05T14:52:57.818Z,21.92
2022-08-05T14:55:38.663Z,22.21
2022-08-05T14:58:11.887Z,21.98
2022-08-05T15:00:59.531Z,21.92
2022-08-05T15:03:33.537Z,21.64
2022-08-05T15:06:07.673Z,21.53
2022-08-05T15:08:58.708Z,21.64
2022-08-05T15:11:52.248Z,21.60
2022-08-05T15:14:33.537Z,21.40
2022-08-05T15:17:00.032Z,21.29
2022-08-05T15:19:26.604Z,21.27
2022-08-05T15:21:53.363Z,21.20
2022-08-05T15:24:26.664Z,21.01
2022-08-05T15:26:53.262Z,21.14
2022-08-05T15:29:22.442Z,21.05
2022-08-05T15:31:53.085Z,20.78
2022-08-05T15:34:32.983Z,20.55
2022-08-05T15:37:06.331Z,20.40
2022-08-05T15:41:04.305Z,20.48
2022-08-05T15:42:55.798Z,20.55
2022-08-05T15:45:14.730Z,20.35
2022-08-05T15:47:42.914Z,20.53
2022-08-05T15:50:15.285Z,20.48
2022-08-05T15:52:54.608Z,20.52
2022-08-05T15:55:25.119Z,20.46
2022-08-05T15:58:09.455Z,20.46
2022-08-05T16:01:04.146Z,20.51
2022-08-05T16:03:29.771Z,20.58
2022-08-05T16:05:59.249Z,20.59
2022-08-05T16:08:30.742Z,20.65
2022-08-05T16:10:58.026Z,20.49
2022-08-05T16:13:31.929Z,20.47
2022-08-05T16:16:03.339Z,20.27
2022-08-05T16:18:30.568Z,20.17
2022-08-05T16:20:58.578Z,20.13
2022-08-05T16:23:28.374Z,20.26
2022-08-05T16:26:06.710Z,20.14
2022-08-05T16:28:36.280Z,20.10
2022-08-05T16:31:08.003Z,19.99
2022-08-05T16:33:41.635Z,19.90
2022-08-05T16:36:09.053Z,19.87
2022-08-05T16:38:35.705Z,19.81
2022-08-05T16:42:12.511Z,19.77
2022-08-05T16:43:49.311Z,19.67
2022-08-05T16:46:24.282Z,19.60
2022-08-05T16:48:51.506Z,19.65
2022-08-05T16:51:19.102Z,19.74
2022-08-05T16:54:04.770Z,19.87
2022-08-05T16:56:36.270Z,19.99
2022-08-05T16:59:07.626Z,20.09
2022-08-05T17:01:53.613Z,20.06
2022-08-05T17:04:21.992Z,19.68
2022-08-05T17:06:53.467Z,19.36
2022-08-05T17:09:20.336Z,18.91
2022-08-05T17:11:49.020Z,18.72
2022-08-05T17:14:22.363Z,18.42
2022-08-05T17:17:04.898Z,18.22
2022-08-05T17:19:31.591Z,18.10
2022-08-05T17:21:58.588Z,18.01
2022-08-05T17:24:36.479Z,17.97
2022-08-05T17:27:07.195Z,17.99
2022-08-05T17:29:41.056Z,18.17
2022-08-05T17:32:17.252Z,18.18
2022-08-05T17:34:49.266Z,18.16
2022-08-05T17:37:40.487Z,18.15
2022-08-05T17:40:10.324Z,18.18
2022-08-05T17:42:41.719Z,18.08
2022-08-05T17:45:20.757Z,18.08
2022-08-05T17:47:53.892Z,18.03
2022-08-05T17:50:28.715Z,17.89
2022-08-05T17:52:58.957Z,17.85
2022-08-05T17:55:27.574Z,17.88
2022-08-05T17:58:03.714Z,17.83
2022-08-05T18:00:30.275Z,17.89
2022-08-05T18:02:57.509Z,17.80
2022-08-05T18:05:28.090Z,17.74
2022-08-05T18:07:54.998Z,17.74
2022-08-05T18:10:23.866Z,17.69
2022-08-05T18:12:50.384Z,17.75
2022-08-05T18:15:17.232Z,17.67
2022-08-05T18:18:00.353Z,17.70
2022-08-05T18:20:31.979Z,17.72
2022-08-05T18:23:00.724Z,17.71
2022-08-05T18:25:36.878Z,17.75
2022-08-05T18:28:06.388Z,17.77
2022-08-05T18:30:33.706Z,17.85
2022-08-05T18:33:01.437Z,17.84
2022-08-05T18:35:49.549Z,17.73
2022-08-05T18:38:19.460Z,17.73
2022-08-05T18:41:57.641Z,17.67
2022-08-05T18:43:43.019Z,17.49
2022-08-05T18:46:19.592Z,17.40
2022-08-05T18:48:48.388Z,17.41
2022-08-05T18:52:02.691Z,17.34
2022-08-05T18:54:25.822Z,17.18
2022-08-05T18:56:54.099Z,17.17
2022-08-05T18:59:43.960Z,17.09
2022-08-05T19:02:11.156Z,16.98
2022-08-05T19:05:02.981Z,16.92
2022-08-05T19:07:45.158Z,16.88
2022-08-05T19:10:12.319Z,16.77
2022-08-05T19:12:39.023Z,16.66
2022-08-05T19:15:06.374Z,16.62
2022-08-05T19:17:59.182Z,16.53
2022-08-05T19:20:36.920Z,16.41
2022-08-05T19:23:07.995Z,16.32
2022-08-05T19:25:42.000Z,16.21
2022-08-05T19:28:10.408Z,16.23
2022-08-05T19:30:37.003Z,16.13
2022-08-05T19:33:05.107Z,16.04
2022-08-05T19:35:56.688Z,16.02
2022-08-05T19:38:26.680Z,15.94
2022-08-05T19:40:53.537Z,15.88
2022-08-05T19:44:04.035Z,15.79
2022-08-05T19:46:06.698Z,15.79
2022-08-05T19:48:53.265Z,15.77
2022-08-05T19:52:05.039Z,15.80
2022-08-05T19:54:17.720Z,15.74
2022-08-05T19:56:54.343Z,15.73
2022-08-05T19:59:51.427Z,15.80
2022-08-05T20:02:07.527Z,15.77
2022-08-05T20:04:34.150Z,15.68
2022-08-05T20:07:00.770Z,15.66
2022-08-05T20:09:28.781Z,15.75
2022-08-05T20:12:15.465Z,15.70
2022-08-05T20:14:42.034Z,15.55
2022-08-05T20:17:10.053Z,15.63
2022-08-05T20:19:42.749Z,15.56
2022-08-05T20:22:09.762Z,15.49
2022-08-05T20:24:36.481Z,15.49
2022-08-05T20:27:04.756Z,15.47
2022-08-05T20:29:38.059Z,15.43
2022-08-05T20:32:08.416Z,15.45
2022-08-05T20:34:36.969Z,15.44
2022-08-05T20:37:03.670Z,15.35
2022-08-05T20:39:35.522Z,15.32
2022-08-05T20:42:04.362Z,15.44
2022-08-05T20:44:33.221Z,15.42
2022-08-05T20:47:07.418Z,15.40
2022-08-05T20:49:39.378Z,15.40
2022-08-05T20:52:07.318Z,15.35
2022-08-05T20:54:43.214Z,15.31
2022-08-05T20:57:42.193Z,15.34
2022-08-05T21:00:41.139Z,15.28
2022-08-05T21:03:01.102Z,15.20
2022-08-05T21:05:38.065Z,15.20
2022-08-05T21:08:14.819Z,15.24
2022-08-05T21:10:48.472Z,15.19
2022-08-05T21:13:26.028Z,15.09
2022-08-05T21:16:03.695Z,15.05
2022-08-05T21:18:30.401Z,14.93
2022-08-05T21:20:57.290Z,14.93
2022-08-05T21:23:24.617Z,14.89
2022-08-05T21:25:51.659Z,14.83
2022-08-05T21:28:23.784Z,14.89
2022-08-05T21:30:57.197Z,14.93
2022-08-05T21:33:24.199Z,14.91
2022-08-05T21:36:03.946Z,14.89
2022-08-05T21:38:30.648Z,14.91
2022-08-05T21:40:57.627Z,14.82
2022-08-05T21:43:25.131Z,14.80
2022-08-05T21:45:57.952Z,14.77
2022-08-05T21:48:28.017Z,14.69
2022-08-05T21:50:55.204Z,14.67
2022-08-05T21:53:27.098Z,14.64
2022-08-05T21:56:05.078Z,14.65
2022-08-05T21:58:34.529Z,14.63
2022-08-05T22:01:04.911Z,14.57
2022-08-05T22:03:52.307Z,14.60
2022-08-05T22:06:23.014Z,14.69
2022-08-05T22:09:01.892Z,14.67
2022-08-05T22:11:40.734Z,14.76
2022-08-05T22:14:32.586Z,14.66
2022-08-05T22:16:57.904Z,14.62
2022-08-05T22:20:00.677Z,14.58
2022-08-05T22:22:15.479Z,14.66
2022-08-05T22:25:01.847Z,14.61
2022-08-05T22:28:11.185Z,14.55
2022-08-05T22:30:35.115Z,14.59
2022-08-05T22:33:03.714Z,14.56
2022-08-05T22:35:38.647Z,14.49
2022-08-05T22:38:15.625Z,14.50
2022-08-05T22:40:42.180Z,14.46
2022-08-05T22:43:16.992Z,14.44
2022-08-05T22:46:12.151Z,14.40
2022-08-05T22:48:41.011Z,14.40
2022-08-05T22:51:07.715Z,14.28
2022-08-05T22:53:35.860Z,14.46
2022-08-05T22:56:04.121Z,14.37
2022-08-05T22:58:36.769Z,14.38
2022-08-05T23:01:03.366Z,14.31
2022-08-05T23:03:58.283Z,14.38
2022-08-05T23:06:18.927Z,14.37
2022-08-05T23:08:45.691Z,14.38
2022-08-05T23:11:18.742Z,14.39
2022-08-05T23:13:45.808Z,14.32
2022-08-05T23:16:33.244Z,14.33
2022-08-05T23:19:00.295Z,14.26
2022-08-05T23:21:43.100Z,14.27
2022-08-05T23:24:15.010Z,14.23
2022-08-05T23:26:41.791Z,14.37
2022-08-05T23:29:10.743Z,14.39
2022-08-05T23:31:43.696Z,14.31
2022-08-05T23:34:11.274Z,14.25
2022-08-05T23:36:40.189Z,14.24
2022-08-05T23:39:17.419Z,14.32
2022-08-05T23:41:58.854Z,14.22
2022-08-05T23:44:28.004Z,14.21
2022-08-05T23:46:59.328Z,14.23
2022-08-05T23:49:35.693Z,14.15
2022-08-05T23:52:22.121Z,14.16
2022-08-05T23:55:05.260Z,14.20
2022-08-05T23:57:34.009Z,14.04
